Saint Louis, Missouri
Traffic Map
Current Weather Conditions
Saint Louis, Missouri
Clear
Clear
31°
Feels Like: 24°
Wind Chill: 24° Ceiling: Unl
Heat Index: 31° Visibility: 10mi
Dew Point: Wind: 7mph
Humidity: 27% Direction: 290° (WNW)
Pressure: 30.14in Gusts: 0mph
Raw Report DataKCPS 122353Z 29006KT 10SM CLR M01/M18 A3014 RMK AO2 SLP210 T10061178 10028 21006 56007
Traffic Incident Summary
Active as of:
Severity:
Category:
InformationThere was an issue retrieving the traffic information for this location. Please try a different location or try again shortly.
Advertisements